KADM

Ardmore Municipal Airport

Ardmore, Oklahoma, USA
METAR KADM 240755Z AUTO 00000KT 10SM CLR 22/20 A3005 RMK AO2 T02150200
Observed Flight Rules
May-24 @ 07:55 UTC (11 minutes ago) Visual Flight Rules
Visibility Clouds
10 miles
  • Clear skies
Temperatures Readings
Current 22°C / 72°F
Dewpoint 20°C / 68°F
Humidity 88%
Altimeter 30.05" Hg
Pressure 1018 hPa
Elevation 232
METAR KADM 240755Z AUTO 00000KT 10SM CLR 22/20 A3005 RMK AO2 T02150200
Observed Flight Rules
May-24 @ 07:55 UTC
(11 minutes ago)
VFR
Clouds
  • Clear skies
Temperature Dewpoint
22°C / 72°F 20°C / 68°F
Humidity Altimeter Pressure
88% 30.05" Hg 1018 hPa